Destrehan, Louisiana
Current Conditions -  °F | °C
As of 5:53 AM on Monday 22 Dec 2014 (Local Time) from KMSY Reporting Station
Haze Haze  
Wind Chill: 14°   Ceiling: 6000
Heat Index: 14°   Visibility: 2mi
Dew Point: 13°   Wind: 3mph
Humidity: 93%   Direction: 90°E
Pressure: 29.85"   Gusts: NA
Location:  29.95°N, 90.39°W
Report Text: KMSY 221153Z 09003KT 2SM BR SCT003 SCT010 BKN060 14/13 A2985 RMK AO2 SLP110 T01440133 10144 20139 56012
Loading
Personal Weather Stations






























Interactive Weather Map New forecast layout! Learn more

10-Day Weather Forecast

Advertisements
Track Severe Weather on mobile